This is the latest recevied weather packets stored in our database for station/object KD4VIF. If no packets are shown the sender has not sent any weather packets the latest 10 day(s).
| Time | Temp. | Humidity | Pressure | Rain* | Wind** | Luminosity | Snow |
|---|---|---|---|---|---|---|---|
| 1777833991 | 17.78° C | 100% | 1017.4 hPa | 0 mm | 1.34 m/s, 303° | - | - |
| 1777833691 | 17.78° C | 100% | 1017.5 hPa | 0 mm | 0.89 m/s, 251° | - | - |
| 1777833391 | 17.78° C | 100% | 1017.5 hPa | 0 mm | 1.34 m/s, 271° | - | - |
| 1777832791 | 17.78° C | 100% | 1017.7 hPa | 0 mm | 0.89 m/s, 239° | - | - |
| 1777832191 | 17.78° C | 100% | 1017.7 hPa | 0 mm | 1.79 m/s, 281° | - | - |
| 1777831591 | 17.78° C | 100% | 1017.9 hPa | 0 mm | 0 m/s | - | - |
| 1777830991 | 17.22° C | 100% | 1018 hPa | 0 mm | 0.45 m/s, 144° | - | - |
| 1777830691 | 17.22° C | 100% | 1018 hPa | 0 mm | 0 m/s | - | - |
| 1777827991 | 16.67° C | 100% | 1018.5 hPa | 0 mm | 0.89 m/s, 279° | - | - |
| 1777826491 | 16.11° C | 100% | 1018.9 hPa | 0 mm | 0 m/s | - | - |
| 1777826191 | 15.56° C | 100% | 1019 hPa | 0 mm | 0 m/s | - | - |
| 1777825891 | 15.56° C | 100% | 1019.1 hPa | 0 mm | 0 m/s | - | - |
| 1777825590 | 15.56° C | 100% | 1019.2 hPa | 0 mm | 0 m/s | - | - |
| 1777824990 | 15° C | 100% | 1019.2 hPa | 0 mm | 0 m/s | - | - |
| 1777824391 | 14.44° C | 100% | 1019.4 hPa | 0 mm | 1.34 m/s, 260° | - | - |
| 1777824091 | 15° C | 100% | 1019.5 hPa | 0 mm | 0.89 m/s, 261° | - | - |
| 1777823490 | 14.44° C | 100% | 1019.5 hPa | 0 mm | 0 m/s | - | - |
| 1777823191 | 14.44° C | 100% | 1019.5 hPa | 0 mm | 0 m/s | - | - |
| 1777822591 | 13.89° C | 100% | 1019.6 hPa | 0 mm | 0.45 m/s, 253° | - | - |
| 1777822290 | 13.89° C | 100% | 1019.7 hPa | 0 mm | 0.45 m/s, 302° | - | - |
| 1777821390 | 13.33° C | 100% | 1019.8 hPa | 0 mm | 2.24 m/s, 129° | - | - |
| 1777820190 | 12.78° C | 100% | 1019.7 hPa | 0 mm | 0.89 m/s, 267° | - | - |
| 1777819590 | 12.78° C | 100% | 1019.5 hPa | 0 mm | 0.89 m/s, 281° | - | - |
| 1777819290 | 12.78° C | 100% | 1019.5 hPa | 0 mm | 0 m/s | - | - |
| 1777818990 | 12.22° C | 100% | 1019.4 hPa | 0 mm | 0.45 m/s, 295° | - | - |
* Rain latest hour (hover to see other rain measurements)
** Current wind speed in m/s (hover to see current wind gust speed)